Weather at Las Cruces Airport

Public forecast

Using degrees Celsius for public forecast. Weather courtesy of forecast.io.

Closest aviation weather report (METAR) to Las Cruces Airport

Closest report is Ignacio Agramonte International Airport, 34.1 nm (63.2 km) NE. Retrieved 2021/10/24 06:51 UTC (1 hour ago):

MUCM 240651Z 03005KT 9000 FEW020 23/23 Q1015

Closest aviation forecast (TAF) to Las Cruces Airport

Closest forecast is Ignacio Agramonte International Airport, 34.1 nm (63.2 km) NE. Retrieved 2021/10/24 06:03 UTC (2 hours ago):

TAF TAF MUCM 240500Z 2406/2506 VRB03KT 9000 SCT020 TEMPO 2418/2424 VRB10KT 3000 TSRA SCT018CB BKN040